SARI METAR and TAF weather

Enter ICAO airport designator
Station Type Date Time Source
SARI METAR 2020/02/21 02:00 UTC NOAA

SARI 210200Z 18006KT CAVOK 25/21 Q1012


Station Type Date Time Source
SARI Decoded METAR 2020/02/21 02:00 UTC NOAA

Iguazu Aerodrome, Argentina (SARI) 25-44S 054-28W 270M
Feb 20, 2020 - 09:00 PM EST / 2020.02.21 0200 UTC
Wind: from the S (180 degrees) at 7 MPH (6 KT):0
Visibility: greater than 7 mile(s):0
Temperature: 77 F (25 C)
Dew Point: 69 F (21 C)
Relative Humidity: 78%
Pressure (altimeter): 29.88 in. Hg (1012 hPa)
ob: SARI 210200Z 18006KT CAVOK 25/21 Q1012
cycle: 2

Station Type Date Time Source
SARI TAF 2020/02/21 00:00 UTC NOAA

TAF SARI 202300Z 2100/2124 18005KT CAVOK TX31/2119Z TN20/2109Z

Example: see airport list